sensor_id;sensor_type;location;lat;lon;timestamp;temperature;humidity
1806;DHT22;901;48.142;11.516;2023-04-03T00:00:32;2.30;99.90
1806;DHT22;901;48.142;11.516;2023-04-03T00:02:59;2.30;99.90
1806;DHT22;901;48.142;11.516;2023-04-03T00:05:27;2.30;99.90
1806;DHT22;901;48.142;11.516;2023-04-03T00:07:53;2.20;99.90
1806;DHT22;901;48.142;11.516;2023-04-03T00:10:20;2.20;99.90
1806;DHT22;901;48.142;11.516;2023-04-03T00:12:47;2.20;99.90
1806;DHT22;901;48.142;11.516;2023-04-03T00:15:14;2.20;99.90
1806;DHT22;901;48.142;11.516;2023-04-03T00:17:41;2.20;99.90
1806;DHT22;901;48.142;11.516;2023-04-03T00:20:08;2.20;99.90
1806;DHT22;901;48.142;11.516;2023-04-03T00:22:36;2.20;99.90
1806;DHT22;901;48.142;11.516;2023-04-03T00:25:03;2.20;99.90
1806;DHT22;901;48.142;11.516;2023-04-03T00:27:30;2.30;99.90
1806;DHT22;901;48.142;11.516;2023-04-03T00:29:57;2.30;99.90
1806;DHT22;901;48.142;11.516;2023-04-03T00:32:24;2.40;99.90
1806;DHT22;901;48.142;11.516;2023-04-03T00:34:51;2.30;99.90
1806;DHT22;901;48.142;11.516;2023-04-03T00:37:17;2.40;99.90
1806;DHT22;901;48.142;11.516;2023-04-03T00:39:46;2.40;99.90
1806;DHT22;901;48.142;11.516;2023-04-03T00:42:13;2.40;99.90
1806;DHT22;901;48.142;11.516;2023-04-03T00:47:43;2.40;99.90
1806;DHT22;901;48.142;11.516;2023-04-03T00:50:10;2.30;99.90
1806;DHT22;901;48.142;11.516;2023-04-03T00:52:37;2.20;99.90
1806;DHT22;901;48.142;11.516;2023-04-03T00:55:08;2.20;99.90
1806;DHT22;901;48.142;11.516;2023-04-03T00:57:36;2.30;99.90
1806;DHT22;901;48.142;11.516;2023-04-03T01:00:08;2.10;99.90
1806;DHT22;901;48.142;11.516;2023-04-03T01:02:35;2.10;99.90
1806;DHT22;901;48.142;11.516;2023-04-03T01:05:03;2.10;99.90
1806;DHT22;901;48.142;11.516;2023-04-03T01:07:31;2.10;99.90
1806;DHT22;901;48.142;11.516;2023-04-03T01:10:02;2.10;99.90
1806;DHT22;901;48.142;11.516;2023-04-03T01:12:32;2.10;99.90
1806;DHT22;901;48.142;11.516;2023-04-03T01:15:00;2.00;99.90
1806;DHT22;901;48.142;11.516;2023-04-03T01:17:30;2.00;99.90
1806;DHT22;901;48.142;11.516;2023-04-03T01:23:12;2.00;99.90
1806;DHT22;901;48.142;11.516;2023-04-03T01:25:43;2.10;99.90
1806;DHT22;901;48.142;11.516;2023-04-03T01:28:13;2.10;99.90
1806;DHT22;901;48.142;11.516;2023-04-03T01:30:45;2.00;99.90
1806;DHT22;901;48.142;11.516;2023-04-03T01:33:14;2.00;99.90
1806;DHT22;901;48.142;11.516;2023-04-03T01:35:41;2.00;99.90
1806;DHT22;901;48.142;11.516;2023-04-03T01:38:08;1.90;99.90
1806;DHT22;901;48.142;11.516;2023-04-03T01:40:35;1.90;99.90
1806;DHT22;901;48.142;11.516;2023-04-03T01:43:02;2.00;99.90
1806;DHT22;901;48.142;11.516;2023-04-03T01:45:29;2.00;99.90
1806;DHT22;901;48.142;11.516;2023-04-03T01:47:56;2.20;99.90
1806;DHT22;901;48.142;11.516;2023-04-03T01:50:24;2.10;99.90
1806;DHT22;901;48.142;11.516;2023-04-03T01:52:51;2.20;99.90
1806;DHT22;901;48.142;11.516;2023-04-03T01:55:18;2.10;99.90
1806;DHT22;901;48.142;11.516;2023-04-03T01:57:45;2.10;99.90
1806;DHT22;901;48.142;11.516;2023-04-03T02:00:12;2.10;99.90
1806;DHT22;901;48.142;11.516;2023-04-03T02:02:39;2.20;99.90
1806;DHT22;901;48.142;11.516;2023-04-03T02:05:07;2.30;99.90
1806;DHT22;901;48.142;11.516;2023-04-03T02:07:35;2.30;99.90
1806;DHT22;901;48.142;11.516;2023-04-03T02:10:02;2.30;99.90
1806;DHT22;901;48.142;11.516;2023-04-03T02:12:29;2.30;99.90
1806;DHT22;901;48.142;11.516;2023-04-03T02:14:56;2.30;99.90
1806;DHT22;901;48.142;11.516;2023-04-03T02:17:23;2.20;99.90
1806;DHT22;901;48.142;11.516;2023-04-03T02:19:50;2.20;99.90
1806;DHT22;901;48.142;11.516;2023-04-03T02:22:17;2.40;99.90
1806;DHT22;901;48.142;11.516;2023-04-03T02:24:45;2.40;99.90
1806;DHT22;901;48.142;11.516;2023-04-03T02:27:12;2.50;99.90
1806;DHT22;901;48.142;11.516;2023-04-03T02:29:39;2.50;99.90
1806;DHT22;901;48.142;11.516;2023-04-03T02:32:05;2.50;99.90
1806;DHT22;901;48.142;11.516;2023-04-03T02:34:32;2.50;99.90
1806;DHT22;901;48.142;11.516;2023-04-03T02:36:59;2.60;99.90
1806;DHT22;901;48.142;11.516;2023-04-03T02:39:26;2.50;99.90
1806;DHT22;901;48.142;11.516;2023-04-03T02:41:54;2.50;99.90
1806;DHT22;901;48.142;11.516;2023-04-03T02:44:21;2.40;99.90
1806;DHT22;901;48.142;11.516;2023-04-03T02:46:49;2.40;99.90
1806;DHT22;901;48.142;11.516;2023-04-03T02:49:15;2.30;99.90
1806;DHT22;901;48.142;11.516;2023-04-03T02:51:42;2.30;99.90
1806;DHT22;901;48.142;11.516;2023-04-03T02:54:09;2.30;99.90
1806;DHT22;901;48.142;11.516;2023-04-03T02:56:36;2.30;99.90
1806;DHT22;901;48.142;11.516;2023-04-03T02:59:04;2.30;99.90
1806;DHT22;901;48.142;11.516;2023-04-03T03:01:31;2.40;99.90
1806;DHT22;901;48.142;11.516;2023-04-03T03:03:58;2.50;99.90
1806;DHT22;901;48.142;11.516;2023-04-03T03:06:25;2.40;99.90
1806;DHT22;901;48.142;11.516;2023-04-03T03:08:52;2.40;99.90
1806;DHT22;901;48.142;11.516;2023-04-03T03:11:19;2.40;99.90
1806;DHT22;901;48.142;11.516;2023-04-03T03:13:46;2.50;99.90
1806;DHT22;901;48.142;11.516;2023-04-03T03:16:14;2.50;99.90
1806;DHT22;901;48.142;11.516;2023-04-03T03:18:41;2.60;99.90
1806;DHT22;901;48.142;11.516;2023-04-03T03:21:09;2.50;99.90
1806;DHT22;901;48.142;11.516;2023-04-03T03:23:37;2.50;99.90
1806;DHT22;901;48.142;11.516;2023-04-03T03:26:05;2.50;99.90
1806;DHT22;901;48.142;11.516;2023-04-03T03:28:32;2.60;99.90
1806;DHT22;901;48.142;11.516;2023-04-03T03:31:00;2.60;99.90
1806;DHT22;901;48.142;11.516;2023-04-03T03:33:28;2.60;99.90
1806;DHT22;901;48.142;11.516;2023-04-03T03:35:55;2.60;99.90
1806;DHT22;901;48.142;11.516;2023-04-03T03:38:22;2.60;99.90
1806;DHT22;901;48.142;11.516;2023-04-03T03:40:50;2.60;99.90
1806;DHT22;901;48.142;11.516;2023-04-03T03:43:17;2.60;99.90
1806;DHT22;901;48.142;11.516;2023-04-03T03:45:49;2.60;99.90
1806;DHT22;901;48.142;11.516;2023-04-03T03:48:16;2.60;99.90
1806;DHT22;901;48.142;11.516;2023-04-03T03:50:45;2.70;99.90
1806;DHT22;901;48.142;11.516;2023-04-03T03:53:11;2.60;99.90
1806;DHT22;901;48.142;11.516;2023-04-03T03:55:38;2.60;99.90
1806;DHT22;901;48.142;11.516;2023-04-03T03:58:05;2.60;99.90
1806;DHT22;901;48.142;11.516;2023-04-03T04:00:32;2.70;99.90
1806;DHT22;901;48.142;11.516;2023-04-03T04:02:59;2.70;99.90
1806;DHT22;901;48.142;11.516;2023-04-03T04:05:26;2.60;99.90
1806;DHT22;901;48.142;11.516;2023-04-03T04:07:54;2.60;99.90
1806;DHT22;901;48.142;11.516;2023-04-03T04:10:21;2.60;99.90
1806;DHT22;901;48.142;11.516;2023-04-03T04:12:48;2.60;99.90
1806;DHT22;901;48.142;11.516;2023-04-03T04:15:17;2.60;99.90
1806;DHT22;901;48.142;11.516;2023-04-03T04:17:44;2.70;99.90
1806;DHT22;901;48.142;11.516;2023-04-03T04:20:11;2.80;99.90
1806;DHT22;901;48.142;11.516;2023-04-03T04:22:38;2.80;99.90
1806;DHT22;901;48.142;11.516;2023-04-03T04:25:06;2.60;99.90
1806;DHT22;901;48.142;11.516;2023-04-03T04:27:33;2.60;99.90
1806;DHT22;901;48.142;11.516;2023-04-03T04:30:00;2.60;99.90
1806;DHT22;901;48.142;11.516;2023-04-03T04:32:28;2.60;99.90
1806;DHT22;901;48.142;11.516;2023-04-03T04:34:55;2.60;99.90
1806;DHT22;901;48.142;11.516;2023-04-03T04:37:22;2.60;99.90
1806;DHT22;901;48.142;11.516;2023-04-03T04:39:49;2.70;99.90
1806;DHT22;901;48.142;11.516;2023-04-03T04:42:17;2.60;99.90
1806;DHT22;901;48.142;11.516;2023-04-03T04:44:43;2.60;99.90
1806;DHT22;901;48.142;11.516;2023-04-03T04:47:10;2.70;99.90
1806;DHT22;901;48.142;11.516;2023-04-03T04:49:37;2.60;99.90
1806;DHT22;901;48.142;11.516;2023-04-03T04:52:04;2.70;99.90
1806;DHT22;901;48.142;11.516;2023-04-03T04:54:32;2.80;99.90
1806;DHT22;901;48.142;11.516;2023-04-03T04:56:58;2.90;99.90
1806;DHT22;901;48.142;11.516;2023-04-03T04:59:26;2.90;99.90
1806;DHT22;901;48.142;11.516;2023-04-03T05:01:53;2.90;99.90
1806;DHT22;901;48.142;11.516;2023-04-03T05:04:20;2.90;99.90
1806;DHT22;901;48.142;11.516;2023-04-03T05:06:47;2.80;99.90
1806;DHT22;901;48.142;11.516;2023-04-03T05:09:14;2.70;99.90
1806;DHT22;901;48.142;11.516;2023-04-03T05:11:41;2.70;99.90
1806;DHT22;901;48.142;11.516;2023-04-03T05:14:08;2.70;99.90
1806;DHT22;901;48.142;11.516;2023-04-03T05:16:36;2.70;99.90
1806;DHT22;901;48.142;11.516;2023-04-03T05:19:03;2.70;99.90
1806;DHT22;901;48.142;11.516;2023-04-03T05:21:30;2.70;99.90
1806;DHT22;901;48.142;11.516;2023-04-03T05:23:58;2.90;99.90
1806;DHT22;901;48.142;11.516;2023-04-03T05:26:28;2.80;99.90
1806;DHT22;901;48.142;11.516;2023-04-03T05:28:55;2.80;99.90
1806;DHT22;901;48.142;11.516;2023-04-03T05:31:21;2.80;99.90
1806;DHT22;901;48.142;11.516;2023-04-03T05:33:50;2.80;99.90
1806;DHT22;901;48.142;11.516;2023-04-03T05:36:16;2.80;99.90
1806;DHT22;901;48.142;11.516;2023-04-03T05:38:43;2.80;99.90
1806;DHT22;901;48.142;11.516;2023-04-03T05:41:10;2.80;99.90
1806;DHT22;901;48.142;11.516;2023-04-03T05:43:37;2.90;99.90
1806;DHT22;901;48.142;11.516;2023-04-03T05:46:08;2.90;99.90
1806;DHT22;901;48.142;11.516;2023-04-03T05:48:35;2.90;99.90
1806;DHT22;901;48.142;11.516;2023-04-03T05:51:04;2.90;99.90
1806;DHT22;901;48.142;11.516;2023-04-03T05:53:33;2.90;99.90
1806;DHT22;901;48.142;11.516;2023-04-03T05:56:01;3.00;99.90
1806;DHT22;901;48.142;11.516;2023-04-03T05:58:28;2.90;99.90
1806;DHT22;901;48.142;11.516;2023-04-03T06:00:55;3.00;99.90
1806;DHT22;901;48.142;11.516;2023-04-03T06:03:22;3.00;99.90
1806;DHT22;901;48.142;11.516;2023-04-03T06:05:49;3.00;99.90
1806;DHT22;901;48.142;11.516;2023-04-03T06:08:17;3.00;99.90
1806;DHT22;901;48.142;11.516;2023-04-03T06:10:44;3.00;99.90
1806;DHT22;901;48.142;11.516;2023-04-03T06:13:12;3.00;99.90
1806;DHT22;901;48.142;11.516;2023-04-03T06:15:39;3.10;99.90
1806;DHT22;901;48.142;11.516;2023-04-03T06:18:06;3.10;99.90
1806;DHT22;901;48.142;11.516;2023-04-03T06:20:33;3.00;99.90
1806;DHT22;901;48.142;11.516;2023-04-03T06:23:00;3.20;99.90
1806;DHT22;901;48.142;11.516;2023-04-03T06:25:29;3.20;99.90
1806;DHT22;901;48.142;11.516;2023-04-03T06:27:57;3.40;99.90
1806;DHT22;901;48.142;11.516;2023-04-03T06:30:24;3.50;99.90
1806;DHT22;901;48.142;11.516;2023-04-03T06:32:51;3.50;99.90
1806;DHT22;901;48.142;11.516;2023-04-03T06:35:18;3.40;99.90
1806;DHT22;901;48.142;11.516;2023-04-03T06:37:45;3.40;99.90
1806;DHT22;901;48.142;11.516;2023-04-03T06:40:15;3.50;99.90
1806;DHT22;901;48.142;11.516;2023-04-03T06:42:45;3.50;99.90
1806;DHT22;901;48.142;11.516;2023-04-03T06:45:12;3.40;99.90
1806;DHT22;901;48.142;11.516;2023-04-03T06:47:39;3.40;99.90
1806;DHT22;901;48.142;11.516;2023-04-03T06:50:06;3.40;99.90
1806;DHT22;901;48.142;11.516;2023-04-03T06:52:34;3.50;99.90
1806;DHT22;901;48.142;11.516;2023-04-03T06:55:01;3.50;99.90
1806;DHT22;901;48.142;11.516;2023-04-03T06:57:28;3.70;99.90
1806;DHT22;901;48.142;11.516;2023-04-03T06:59:56;3.60;99.90
1806;DHT22;901;48.142;11.516;2023-04-03T07:02:23;3.70;99.90
1806;DHT22;901;48.142;11.516;2023-04-03T07:04:49;3.80;99.90
1806;DHT22;901;48.142;11.516;2023-04-03T07:07:16;3.80;99.90
1806;DHT22;901;48.142;11.516;2023-04-03T07:09:43;3.80;99.90
1806;DHT22;901;48.142;11.516;2023-04-03T07:12:12;3.80;99.90
1806;DHT22;901;48.142;11.516;2023-04-03T07:14:39;3.90;99.90
1806;DHT22;901;48.142;11.516;2023-04-03T07:17:07;3.80;99.90
1806;DHT22;901;48.142;11.516;2023-04-03T07:19:33;3.90;99.90
1806;DHT22;901;48.142;11.516;2023-04-03T07:22:00;3.80;99.90
1806;DHT22;901;48.142;11.516;2023-04-03T07:24:27;4.10;99.90
1806;DHT22;901;48.142;11.516;2023-04-03T07:26:54;4.30;99.90
1806;DHT22;901;48.142;11.516;2023-04-03T07:29:21;4.30;99.90
1806;DHT22;901;48.142;11.516;2023-04-03T07:31:48;4.20;99.90
1806;DHT22;901;48.142;11.516;2023-04-03T07:34:16;4.30;99.90
1806;DHT22;901;48.142;11.516;2023-04-03T07:36:43;4.40;99.90
1806;DHT22;901;48.142;11.516;2023-04-03T07:39:10;4.30;99.90
1806;DHT22;901;48.142;11.516;2023-04-03T07:41:36;4.20;99.90
1806;DHT22;901;48.142;11.516;2023-04-03T07:44:03;4.10;99.90
1806;DHT22;901;48.142;11.516;2023-04-03T07:46:31;4.00;99.90
1806;DHT22;901;48.142;11.516;2023-04-03T07:48:57;4.00;99.90
1806;DHT22;901;48.142;11.516;2023-04-03T07:51:26;3.80;99.90
1806;DHT22;901;48.142;11.516;2023-04-03T07:53:54;3.90;99.90
1806;DHT22;901;48.142;11.516;2023-04-03T07:56:21;3.80;99.90
1806;DHT22;901;48.142;11.516;2023-04-03T07:58:48;3.70;99.90
1806;DHT22;901;48.142;11.516;2023-04-03T08:01:15;3.80;99.90
1806;DHT22;901;48.142;11.516;2023-04-03T08:03:41;3.90;99.90
1806;DHT22;901;48.142;11.516;2023-04-03T08:06:09;3.90;99.90
1806;DHT22;901;48.142;11.516;2023-04-03T08:08:37;3.90;99.90
1806;DHT22;901;48.142;11.516;2023-04-03T08:11:04;4.00;99.90
1806;DHT22;901;48.142;11.516;2023-04-03T08:13:32;3.90;99.90
1806;DHT22;901;48.142;11.516;2023-04-03T08:16:07;4.00;99.90
1806;DHT22;901;48.142;11.516;2023-04-03T08:18:34;3.90;99.90
1806;DHT22;901;48.142;11.516;2023-04-03T08:21:05;4.10;99.90
1806;DHT22;901;48.142;11.516;2023-04-03T08:23:32;4.10;99.90
1806;DHT22;901;48.142;11.516;2023-04-03T08:26:05;4.10;99.90
1806;DHT22;901;48.142;11.516;2023-04-03T08:28:32;4.00;99.90
1806;DHT22;901;48.142;11.516;2023-04-03T08:31:03;4.10;99.90
1806;DHT22;901;48.142;11.516;2023-04-03T08:33:31;4.20;99.90
1806;DHT22;901;48.142;11.516;2023-04-03T08:35:58;4.30;99.90
1806;DHT22;901;48.142;11.516;2023-04-03T08:38:25;4.40;99.90
1806;DHT22;901;48.142;11.516;2023-04-03T08:41:04;4.50;99.90
1806;DHT22;901;48.142;11.516;2023-04-03T08:43:40;4.60;99.90
1806;DHT22;901;48.142;11.516;2023-04-03T08:46:11;4.60;99.90
1806;DHT22;901;48.142;11.516;2023-04-03T08:48:41;4.50;99.90
1806;DHT22;901;48.142;11.516;2023-04-03T08:51:13;4.40;99.90
1806;DHT22;901;48.142;11.516;2023-04-03T08:53:46;4.50;99.90
1806;DHT22;901;48.142;11.516;2023-04-03T08:56:18;4.70;99.90
1806;DHT22;901;48.142;11.516;2023-04-03T08:58:49;4.80;99.90
1806;DHT22;901;48.142;11.516;2023-04-03T09:01:21;5.00;99.90
1806;DHT22;901;48.142;11.516;2023-04-03T09:03:49;4.90;99.90
1806;DHT22;901;48.142;11.516;2023-04-03T09:06:19;4.90;99.90
1806;DHT22;901;48.142;11.516;2023-04-03T09:08:49;5.00;99.90
1806;DHT22;901;48.142;11.516;2023-04-03T09:11:23;4.90;99.90
1806;DHT22;901;48.142;11.516;2023-04-03T09:13:56;4.80;99.90
1806;DHT22;901;48.142;11.516;2023-04-03T09:16:38;4.80;99.90
1806;DHT22;901;48.142;11.516;2023-04-03T09:19:14;4.80;99.90
1806;DHT22;901;48.142;11.516;2023-04-03T09:21:42;4.80;99.90
1806;DHT22;901;48.142;11.516;2023-04-03T09:24:11;4.90;99.90
1806;DHT22;901;48.142;11.516;2023-04-03T09:26:43;5.20;99.90
1806;DHT22;901;48.142;11.516;2023-04-03T09:29:18;5.20;99.90
1806;DHT22;901;48.142;11.516;2023-04-03T09:31:48;5.20;99.90
1806;DHT22;901;48.142;11.516;2023-04-03T09:34:20;5.30;99.90
1806;DHT22;901;48.142;11.516;2023-04-03T09:36:50;5.50;99.90
1806;DHT22;901;48.142;11.516;2023-04-03T09:39:20;5.60;99.90
1806;DHT22;901;48.142;11.516;2023-04-03T09:42:00;5.90;99.90
1806;DHT22;901;48.142;11.516;2023-04-03T09:44:28;5.80;99.90
1806;DHT22;901;48.142;11.516;2023-04-03T09:46:55;5.90;99.90
1806;DHT22;901;48.142;11.516;2023-04-03T09:49:22;6.10;99.90
1806;DHT22;901;48.142;11.516;2023-04-03T09:51:49;6.00;99.90
1806;DHT22;901;48.142;11.516;2023-04-03T09:54:40;5.70;99.90
1806;DHT22;901;48.142;11.516;2023-04-03T09:57:11;5.50;99.90
1806;DHT22;901;48.142;11.516;2023-04-03T09:59:45;5.30;99.90
1806;DHT22;901;48.142;11.516;2023-04-03T10:02:36;5.40;99.90
1806;DHT22;901;48.142;11.516;2023-04-03T10:05:05;5.20;99.90
1806;DHT22;901;48.142;11.516;2023-04-03T10:07:50;5.30;99.90
1806;DHT22;901;48.142;11.516;2023-04-03T10:10:19;5.20;99.90
1806;DHT22;901;48.142;11.516;2023-04-03T10:13:03;5.20;99.90
1806;DHT22;901;48.142;11.516;2023-04-03T10:15:36;5.00;99.90
1806;DHT22;901;48.142;11.516;2023-04-03T10:18:13;4.90;99.90
1806;DHT22;901;48.142;11.516;2023-04-03T10:20:44;4.90;99.90
1806;DHT22;901;48.142;11.516;2023-04-03T10:23:17;4.70;99.90
1806;DHT22;901;48.142;11.516;2023-04-03T10:25:52;4.50;99.90
1806;DHT22;901;48.142;11.516;2023-04-03T10:28:30;4.50;99.90
1806;DHT22;901;48.142;11.516;2023-04-03T10:31:03;4.60;99.90
1806;DHT22;901;48.142;11.516;2023-04-03T10:33:46;4.70;99.90
1806;DHT22;901;48.142;11.516;2023-04-03T10:36:20;4.60;99.90
1806;DHT22;901;48.142;11.516;2023-04-03T10:38:58;4.70;99.90
1806;DHT22;901;48.142;11.516;2023-04-03T10:41:38;4.90;99.90
1806;DHT22;901;48.142;11.516;2023-04-03T10:44:15;5.10;99.90
1806;DHT22;901;48.142;11.516;2023-04-03T10:46:45;5.20;99.90
1806;DHT22;901;48.142;11.516;2023-04-03T10:49:22;5.20;99.90
1806;DHT22;901;48.142;11.516;2023-04-03T10:51:57;5.00;99.90
1806;DHT22;901;48.142;11.516;2023-04-03T10:54:34;4.80;99.90
1806;DHT22;901;48.142;11.516;2023-04-03T10:57:05;4.60;99.90
1806;DHT22;901;48.142;11.516;2023-04-03T10:59:38;4.50;99.90
1806;DHT22;901;48.142;11.516;2023-04-03T11:02:14;4.40;99.90
1806;DHT22;901;48.142;11.516;2023-04-03T11:04:45;4.30;99.90
1806;DHT22;901;48.142;11.516;2023-04-03T11:07:17;4.20;99.90
1806;DHT22;901;48.142;11.516;2023-04-03T11:09:48;4.10;99.90
1806;DHT22;901;48.142;11.516;2023-04-03T11:12:20;4.10;99.90
1806;DHT22;901;48.142;11.516;2023-04-03T11:14:52;4.20;99.90
1806;DHT22;901;48.142;11.516;2023-04-03T11:17:28;4.40;99.90
1806;DHT22;901;48.142;11.516;2023-04-03T11:20:03;4.60;99.90
1806;DHT22;901;48.142;11.516;2023-04-03T11:22:34;4.70;99.90
1806;DHT22;901;48.142;11.516;2023-04-03T11:25:04;4.50;99.90
1806;DHT22;901;48.142;11.516;2023-04-03T11:27:38;4.50;99.90
1806;DHT22;901;48.142;11.516;2023-04-03T11:30:14;4.30;99.90
1806;DHT22;901;48.142;11.516;2023-04-03T11:35:45;4.40;99.90
1806;DHT22;901;48.142;11.516;2023-04-03T11:38:18;4.40;99.90
1806;DHT22;901;48.142;11.516;2023-04-03T11:40:49;4.50;99.90
1806;DHT22;901;48.142;11.516;2023-04-03T11:43:25;4.60;99.90
1806;DHT22;901;48.142;11.516;2023-04-03T11:45:56;4.80;99.90
1806;DHT22;901;48.142;11.516;2023-04-03T11:48:50;4.80;99.90
1806;DHT22;901;48.142;11.516;2023-04-03T11:51:45;4.90;99.90
1806;DHT22;901;48.142;11.516;2023-04-03T11:54:49;5.00;99.90
1806;DHT22;901;48.142;11.516;2023-04-03T12:01:05;5.20;99.90
1806;DHT22;901;48.142;11.516;2023-04-03T12:09:24;5.70;99.90
1806;DHT22;901;48.142;11.516;2023-04-03T12:11:52;5.60;99.90
1806;DHT22;901;48.142;11.516;2023-04-03T12:14:22;5.90;99.90
1806;DHT22;901;48.142;11.516;2023-04-03T12:16:52;5.80;99.90
1806;DHT22;901;48.142;11.516;2023-04-03T12:19:34;5.90;99.90
1806;DHT22;901;48.142;11.516;2023-04-03T12:22:13;6.30;99.90
1806;DHT22;901;48.142;11.516;2023-04-03T12:24:42;6.30;99.90
1806;DHT22;901;48.142;11.516;2023-04-03T12:27:29;6.60;99.90
1806;DHT22;901;48.142;11.516;2023-04-03T12:30:14;6.70;99.90
1806;DHT22;901;48.142;11.516;2023-04-03T12:33:01;6.70;99.90
1806;DHT22;901;48.142;11.516;2023-04-03T12:35:35;6.80;99.90
1806;DHT22;901;48.142;11.516;2023-04-03T12:38:29;6.80;99.90
1806;DHT22;901;48.142;11.516;2023-04-03T12:41:21;6.70;99.90
1806;DHT22;901;48.142;11.516;2023-04-03T12:44:03;6.80;99.90
1806;DHT22;901;48.142;11.516;2023-04-03T12:46:36;6.60;99.90
1806;DHT22;901;48.142;11.516;2023-04-03T12:49:20;6.80;99.90
1806;DHT22;901;48.142;11.516;2023-04-03T12:51:49;6.90;99.90
1806;DHT22;901;48.142;11.516;2023-04-03T12:54:19;6.90;99.90
1806;DHT22;901;48.142;11.516;2023-04-03T12:56:47;6.80;99.90
1806;DHT22;901;48.142;11.516;2023-04-03T12:59:15;7.10;99.90
1806;DHT22;901;48.142;11.516;2023-04-03T13:01:43;7.30;99.90
1806;DHT22;901;48.142;11.516;2023-04-03T13:04:12;7.30;99.90
1806;DHT22;901;48.142;11.516;2023-04-03T13:06:40;7.30;99.90
1806;DHT22;901;48.142;11.516;2023-04-03T13:09:19;7.40;99.90
1806;DHT22;901;48.142;11.516;2023-04-03T13:11:48;7.30;99.90
1806;DHT22;901;48.142;11.516;2023-04-03T13:14:17;7.30;99.90
1806;DHT22;901;48.142;11.516;2023-04-03T13:16:53;7.20;99.90
1806;DHT22;901;48.142;11.516;2023-04-03T13:19:22;7.10;99.90
1806;DHT22;901;48.142;11.516;2023-04-03T13:21:51;7.20;99.90
1806;DHT22;901;48.142;11.516;2023-04-03T13:24:21;7.10;99.90
1806;DHT22;901;48.142;11.516;2023-04-03T13:26:48;7.10;99.90
1806;DHT22;901;48.142;11.516;2023-04-03T13:29:22;7.00;99.90
1806;DHT22;901;48.142;11.516;2023-04-03T13:31:52;6.80;99.90
1806;DHT22;901;48.142;11.516;2023-04-03T13:34:22;6.90;99.90
1806;DHT22;901;48.142;11.516;2023-04-03T13:36:56;6.60;99.90
1806;DHT22;901;48.142;11.516;2023-04-03T13:39:26;6.40;99.90
1806;DHT22;901;48.142;11.516;2023-04-03T13:41:55;6.30;99.90
1806;DHT22;901;48.142;11.516;2023-04-03T13:44:32;6.30;99.90
1806;DHT22;901;48.142;11.516;2023-04-03T13:47:00;6.30;99.90
1806;DHT22;901;48.142;11.516;2023-04-03T13:49:33;6.30;99.90
1806;DHT22;901;48.142;11.516;2023-04-03T13:52:01;6.20;99.90
1806;DHT22;901;48.142;11.516;2023-04-03T13:54:32;6.20;99.90
1806;DHT22;901;48.142;11.516;2023-04-03T13:57:00;6.20;99.90
1806;DHT22;901;48.142;11.516;2023-04-03T13:59:29;6.30;99.90
1806;DHT22;901;48.142;11.516;2023-04-03T14:02:13;6.30;99.90
1806;DHT22;901;48.142;11.516;2023-04-03T14:04:52;6.40;99.90
1806;DHT22;901;48.142;11.516;2023-04-03T14:07:22;6.40;99.90
1806;DHT22;901;48.142;11.516;2023-04-03T14:09:50;6.50;99.90
1806;DHT22;901;48.142;11.516;2023-04-03T14:12:19;6.60;99.90
1806;DHT22;901;48.142;11.516;2023-04-03T14:14:47;6.50;99.90
1806;DHT22;901;48.142;11.516;2023-04-03T14:17:17;6.70;99.90
1806;DHT22;901;48.142;11.516;2023-04-03T14:19:45;6.50;99.90
1806;DHT22;901;48.142;11.516;2023-04-03T14:22:16;6.60;99.90
1806;DHT22;901;48.142;11.516;2023-04-03T14:24:44;6.70;99.90
1806;DHT22;901;48.142;11.516;2023-04-03T14:27:16;6.50;99.90
1806;DHT22;901;48.142;11.516;2023-04-03T14:29:44;6.30;99.90
1806;DHT22;901;48.142;11.516;2023-04-03T14:32:11;6.20;99.90
1806;DHT22;901;48.142;11.516;2023-04-03T14:34:39;6.30;99.90
1806;DHT22;901;48.142;11.516;2023-04-03T14:37:10;6.20;99.90
1806;DHT22;901;48.142;11.516;2023-04-03T14:39:38;6.10;99.90
1806;DHT22;901;48.142;11.516;2023-04-03T14:42:06;6.10;99.90
1806;DHT22;901;48.142;11.516;2023-04-03T14:44:33;6.20;99.90
1806;DHT22;901;48.142;11.516;2023-04-03T14:47:00;6.50;99.90
1806;DHT22;901;48.142;11.516;2023-04-03T14:49:29;6.60;99.90
1806;DHT22;901;48.142;11.516;2023-04-03T14:51:56;6.70;99.90
1806;DHT22;901;48.142;11.516;2023-04-03T14:54:24;6.70;99.90
1806;DHT22;901;48.142;11.516;2023-04-03T14:56:55;6.60;99.90
1806;DHT22;901;48.142;11.516;2023-04-03T14:59:23;6.60;99.90
1806;DHT22;901;48.142;11.516;2023-04-03T15:01:50;6.60;99.90
1806;DHT22;901;48.142;11.516;2023-04-03T15:04:19;6.40;99.90
1806;DHT22;901;48.142;11.516;2023-04-03T15:06:47;6.20;99.90
1806;DHT22;901;48.142;11.516;2023-04-03T15:09:20;6.10;99.90
1806;DHT22;901;48.142;11.516;2023-04-03T15:11:47;6.00;99.90
1806;DHT22;901;48.142;11.516;2023-04-03T15:14:16;6.00;99.90
1806;DHT22;901;48.142;11.516;2023-04-03T15:16:43;6.00;99.90
1806;DHT22;901;48.142;11.516;2023-04-03T15:19:10;5.90;99.90
1806;DHT22;901;48.142;11.516;2023-04-03T15:21:37;5.80;99.90
1806;DHT22;901;48.142;11.516;2023-04-03T15:24:04;5.90;99.90
1806;DHT22;901;48.142;11.516;2023-04-03T15:26:31;6.00;99.90
1806;DHT22;901;48.142;11.516;2023-04-03T15:28:58;5.90;99.90
1806;DHT22;901;48.142;11.516;2023-04-03T15:31:27;5.80;99.90
1806;DHT22;901;48.142;11.516;2023-04-03T15:33:54;5.70;99.90
1806;DHT22;901;48.142;11.516;2023-04-03T15:36:20;5.60;99.90
1806;DHT22;901;48.142;11.516;2023-04-03T15:38:47;5.70;99.90
1806;DHT22;901;48.142;11.516;2023-04-03T15:41:14;5.70;99.90
1806;DHT22;901;48.142;11.516;2023-04-03T15:43:41;5.70;99.90
1806;DHT22;901;48.142;11.516;2023-04-03T15:46:08;5.70;99.90
1806;DHT22;901;48.142;11.516;2023-04-03T15:48:36;5.60;99.90
1806;DHT22;901;48.142;11.516;2023-04-03T15:51:05;5.50;99.90
1806;DHT22;901;48.142;11.516;2023-04-03T15:53:32;5.50;99.90
1806;DHT22;901;48.142;11.516;2023-04-03T15:55:58;5.50;99.90
1806;DHT22;901;48.142;11.516;2023-04-03T15:58:25;5.50;99.90
1806;DHT22;901;48.142;11.516;2023-04-03T16:00:52;5.40;99.90
1806;DHT22;901;48.142;11.516;2023-04-03T16:03:20;5.50;99.90
1806;DHT22;901;48.142;11.516;2023-04-03T16:05:49;5.50;99.90
1806;DHT22;901;48.142;11.516;2023-04-03T16:08:17;5.50;99.90
1806;DHT22;901;48.142;11.516;2023-04-03T16:10:45;5.50;99.90
1806;DHT22;901;48.142;11.516;2023-04-03T16:13:13;5.40;99.90
1806;DHT22;901;48.142;11.516;2023-04-03T16:15:40;5.40;99.90
1806;DHT22;901;48.142;11.516;2023-04-03T16:18:08;5.30;99.90
1806;DHT22;901;48.142;11.516;2023-04-03T16:20:35;5.30;99.90
1806;DHT22;901;48.142;11.516;2023-04-03T16:23:03;5.30;99.90
1806;DHT22;901;48.142;11.516;2023-04-03T16:25:30;5.30;99.90
1806;DHT22;901;48.142;11.516;2023-04-03T16:27:57;5.30;99.90
1806;DHT22;901;48.142;11.516;2023-04-03T16:30:24;5.30;99.90
1806;DHT22;901;48.142;11.516;2023-04-03T16:32:51;5.30;99.90
1806;DHT22;901;48.142;11.516;2023-04-03T16:35:19;5.10;99.90
1806;DHT22;901;48.142;11.516;2023-04-03T16:37:45;5.10;99.90
1806;DHT22;901;48.142;11.516;2023-04-03T16:40:14;5.00;99.90
1806;DHT22;901;48.142;11.516;2023-04-03T16:42:41;4.90;99.90
1806;DHT22;901;48.142;11.516;2023-04-03T16:45:08;4.80;99.90
1806;DHT22;901;48.142;11.516;2023-04-03T16:47:35;4.70;99.90
1806;DHT22;901;48.142;11.516;2023-04-03T16:50:03;4.70;99.90